sensor_id;sensor_type;location;lat;lon;timestamp;temperature;humidity
17172;DHT22;8701;50.150;8.756;2023-02-28T00:03:59;2.60;99.90
17172;DHT22;8701;50.150;8.756;2023-02-28T00:08:02;2.50;99.90
17172;DHT22;8701;50.150;8.756;2023-02-28T00:12:04;2.40;99.90
17172;DHT22;8701;50.150;8.756;2023-02-28T00:16:18;2.40;99.90
17172;DHT22;8701;50.150;8.756;2023-02-28T00:20:20;2.30;99.90
17172;DHT22;8701;50.150;8.756;2023-02-28T00:24:23;2.30;99.90
17172;DHT22;8701;50.150;8.756;2023-02-28T00:28:25;2.30;99.90
17172;DHT22;8701;50.150;8.756;2023-02-28T00:32:29;2.30;99.90
17172;DHT22;8701;50.150;8.756;2023-02-28T00:36:31;2.20;99.90
17172;DHT22;8701;50.150;8.756;2023-02-28T00:40:34;2.20;99.90
17172;DHT22;8701;50.150;8.756;2023-02-28T00:44:36;2.20;99.90
17172;DHT22;8701;50.150;8.756;2023-02-28T00:48:40;2.20;99.90
17172;DHT22;8701;50.150;8.756;2023-02-28T00:52:42;2.20;99.90
17172;DHT22;8701;50.150;8.756;2023-02-28T00:56:44;2.10;99.90
17172;DHT22;8701;50.150;8.756;2023-02-28T01:00:47;2.00;99.90
17172;DHT22;8701;50.150;8.756;2023-02-28T01:04:51;2.00;99.90
17172;DHT22;8701;50.150;8.756;2023-02-28T01:08:53;2.00;99.90
17172;DHT22;8701;50.150;8.756;2023-02-28T01:12:55;1.90;99.90
17172;DHT22;8701;50.150;8.756;2023-02-28T01:16:57;1.90;99.90
17172;DHT22;8701;50.150;8.756;2023-02-28T01:21:04;1.90;99.90
17172;DHT22;8701;50.150;8.756;2023-02-28T01:25:07;1.80;99.90
17172;DHT22;8701;50.150;8.756;2023-02-28T01:29:10;1.70;99.90
17172;DHT22;8701;50.150;8.756;2023-02-28T01:33:12;1.70;99.90
17172;DHT22;8701;50.150;8.756;2023-02-28T01:37:16;1.70;99.90
17172;DHT22;8701;50.150;8.756;2023-02-28T01:41:21;1.60;99.90
17172;DHT22;8701;50.150;8.756;2023-02-28T01:45:26;1.50;99.90
17172;DHT22;8701;50.150;8.756;2023-02-28T01:49:29;1.50;99.90
17172;DHT22;8701;50.150;8.756;2023-02-28T01:53:36;1.50;99.90
17172;DHT22;8701;50.150;8.756;2023-02-28T01:57:42;1.40;99.90
17172;DHT22;8701;50.150;8.756;2023-02-28T02:01:46;1.40;99.90
17172;DHT22;8701;50.150;8.756;2023-02-28T02:05:48;1.40;99.90
17172;DHT22;8701;50.150;8.756;2023-02-28T02:09:59;1.40;99.90
17172;DHT22;8701;50.150;8.756;2023-02-28T02:14:12;1.30;99.90
17172;DHT22;8701;50.150;8.756;2023-02-28T02:18:27;1.30;99.90
17172;DHT22;8701;50.150;8.756;2023-02-28T02:23:02;1.20;99.90
17172;DHT22;8701;50.150;8.756;2023-02-28T02:27:25;1.30;99.90
17172;DHT22;8701;50.150;8.756;2023-02-28T02:31:55;1.20;99.90
17172;DHT22;8701;50.150;8.756;2023-02-28T02:36:05;1.20;99.90
17172;DHT22;8701;50.150;8.756;2023-02-28T02:40:14;1.20;99.90
17172;DHT22;8701;50.150;8.756;2023-02-28T02:44:34;1.20;99.90
17172;DHT22;8701;50.150;8.756;2023-02-28T02:49:22;1.20;99.90
17172;DHT22;8701;50.150;8.756;2023-02-28T02:53:57;1.10;99.90
17172;DHT22;8701;50.150;8.756;2023-02-28T03:03:18;1.10;99.90
17172;DHT22;8701;50.150;8.756;2023-02-28T03:07:44;0.90;99.90
17172;DHT22;8701;50.150;8.756;2023-02-28T03:12:31;0.70;99.90
17172;DHT22;8701;50.150;8.756;2023-02-28T03:17:29;0.90;99.90
17172;DHT22;8701;50.150;8.756;2023-02-28T03:27:25;0.80;99.90
17172;DHT22;8701;50.150;8.756;2023-02-28T03:32:08;0.80;99.90
17172;DHT22;8701;50.150;8.756;2023-02-28T03:36:32;0.80;99.90
17172;DHT22;8701;50.150;8.756;2023-02-28T03:41:10;0.80;99.90
17172;DHT22;8701;50.150;8.756;2023-02-28T03:45:48;0.70;99.90
17172;DHT22;8701;50.150;8.756;2023-02-28T03:51:17;0.70;99.90
17172;DHT22;8701;50.150;8.756;2023-02-28T03:56:48;0.40;99.90
17172;DHT22;8701;50.150;8.756;2023-02-28T04:07:41;0.30;99.90
17172;DHT22;8701;50.150;8.756;2023-02-28T04:13:24;0.40;99.90
17172;DHT22;8701;50.150;8.756;2023-02-28T04:18:13;0.50;99.90
17172;DHT22;8701;50.150;8.756;2023-02-28T05:17:47;0.80;99.90
17172;DHT22;8701;50.150;8.756;2023-02-28T05:21:51;0.80;99.90
17172;DHT22;8701;50.150;8.756;2023-02-28T05:25:54;0.80;99.90
17172;DHT22;8701;50.150;8.756;2023-02-28T06:14:23;0.70;99.90
17172;DHT22;8701;50.150;8.756;2023-02-28T06:18:28;0.60;99.90
17172;DHT22;8701;50.150;8.756;2023-02-28T06:22:34;0.60;99.90
17172;DHT22;8701;50.150;8.756;2023-02-28T06:27:03;0.60;99.90
17172;DHT22;8701;50.150;8.756;2023-02-28T06:31:21;0.60;99.90
17172;DHT22;8701;50.150;8.756;2023-02-28T06:35:30;0.60;99.90
17172;DHT22;8701;50.150;8.756;2023-02-28T06:39:32;0.60;99.90
17172;DHT22;8701;50.150;8.756;2023-02-28T06:43:37;0.70;99.90
17172;DHT22;8701;50.150;8.756;2023-02-28T06:47:42;0.60;99.90
17172;DHT22;8701;50.150;8.756;2023-02-28T06:51:45;0.60;99.90
17172;DHT22;8701;50.150;8.756;2023-02-28T07:01:36;0.70;99.90
17172;DHT22;8701;50.150;8.756;2023-02-28T07:11:35;0.90;99.90
17172;DHT22;8701;50.150;8.756;2023-02-28T07:21:01;0.90;99.90
17172;DHT22;8701;50.150;8.756;2023-02-28T07:25:08;1.20;99.90
17172;DHT22;8701;50.150;8.756;2023-02-28T07:29:12;1.30;99.90
17172;DHT22;8701;50.150;8.756;2023-02-28T07:44:03;1.50;99.90
17172;DHT22;8701;50.150;8.756;2023-02-28T07:48:17;1.80;99.90
17172;DHT22;8701;50.150;8.756;2023-02-28T07:52:23;2.00;99.90
17172;DHT22;8701;50.150;8.756;2023-02-28T07:56:26;2.40;99.90
17172;DHT22;8701;50.150;8.756;2023-02-28T08:00:45;2.50;99.90
17172;DHT22;8701;50.150;8.756;2023-02-28T08:04:52;3.10;99.90
17172;DHT22;8701;50.150;8.756;2023-02-28T08:08:54;4.10;99.90
17172;DHT22;8701;50.150;8.756;2023-02-28T08:12:58;5.30;99.90
17172;DHT22;8701;50.150;8.756;2023-02-28T08:17:00;6.30;99.90
17172;DHT22;8701;50.150;8.756;2023-02-28T08:26:41;8.20;99.90
17172;DHT22;8701;50.150;8.756;2023-02-28T08:30:43;9.40;98.60
17172;DHT22;8701;50.150;8.756;2023-02-28T08:34:45;10.00;97.30
17172;DHT22;8701;50.150;8.756;2023-02-28T08:38:47;10.80;92.80
17172;DHT22;8701;50.150;8.756;2023-02-28T08:42:51;11.80;91.20
17172;DHT22;8701;50.150;8.756;2023-02-28T08:46:53;12.80;87.00
17172;DHT22;8701;50.150;8.756;2023-02-28T08:51:22;13.60;80.10
17172;DHT22;8701;50.150;8.756;2023-02-28T08:55:29;14.30;79.10
17172;DHT22;8701;50.150;8.756;2023-02-28T08:59:35;15.00;71.60
17172;DHT22;8701;50.150;8.756;2023-02-28T09:03:41;15.40;70.40
17172;DHT22;8701;50.150;8.756;2023-02-28T09:08:02;15.50;69.50
17172;DHT22;8701;50.150;8.756;2023-02-28T09:12:05;15.80;68.40
17172;DHT22;8701;50.150;8.756;2023-02-28T09:16:12;15.90;62.60
17172;DHT22;8701;50.150;8.756;2023-02-28T09:20:17;15.60;64.80
17172;DHT22;8701;50.150;8.756;2023-02-28T09:24:20;15.20;64.00
17172;DHT22;8701;50.150;8.756;2023-02-28T09:28:22;14.20;63.70
17172;DHT22;8701;50.150;8.756;2023-02-28T09:32:26;13.20;66.70
17172;DHT22;8701;50.150;8.756;2023-02-28T09:36:29;12.40;66.80
17172;DHT22;8701;50.150;8.756;2023-02-28T09:40:31;11.70;68.60
17172;DHT22;8701;50.150;8.756;2023-02-28T09:44:40;11.30;69.30
17172;DHT22;8701;50.150;8.756;2023-02-28T09:48:45;11.30;71.70
17172;DHT22;8701;50.150;8.756;2023-02-28T09:52:54;11.00;66.50
17172;DHT22;8701;50.150;8.756;2023-02-28T09:57:00;10.70;68.30
17172;DHT22;8701;50.150;8.756;2023-02-28T10:01:09;10.90;72.20
17172;DHT22;8701;50.150;8.756;2023-02-28T10:05:17;10.80;71.00
17172;DHT22;8701;50.150;8.756;2023-02-28T10:09:24;10.70;71.00
17172;DHT22;8701;50.150;8.756;2023-02-28T10:18:37;10.80;73.80
17172;DHT22;8701;50.150;8.756;2023-02-28T10:22:50;10.70;68.90
17172;DHT22;8701;50.150;8.756;2023-02-28T10:26:59;10.60;71.20
17172;DHT22;8701;50.150;8.756;2023-02-28T10:41:42;10.40;69.30
17172;DHT22;8701;50.150;8.756;2023-02-28T10:46:02;9.70;67.90
17172;DHT22;8701;50.150;8.756;2023-02-28T10:50:05;9.60;73.10
17172;DHT22;8701;50.150;8.756;2023-02-28T10:54:23;10.00;75.40
17172;DHT22;8701;50.150;8.756;2023-02-28T10:58:53;10.30;70.10
17172;DHT22;8701;50.150;8.756;2023-02-28T11:02:58;10.20;67.40
17172;DHT22;8701;50.150;8.756;2023-02-28T11:07:23;9.80;69.30
17172;DHT22;8701;50.150;8.756;2023-02-28T11:11:52;9.80;71.50
17172;DHT22;8701;50.150;8.756;2023-02-28T11:21:17;10.40;69.50
17172;DHT22;8701;50.150;8.756;2023-02-28T11:25:24;10.70;70.00
17172;DHT22;8701;50.150;8.756;2023-02-28T11:29:47;10.60;68.00
17172;DHT22;8701;50.150;8.756;2023-02-28T11:38:17;11.40;66.80
17172;DHT22;8701;50.150;8.756;2023-02-28T11:42:54;12.40;63.00
17172;DHT22;8701;50.150;8.756;2023-02-28T11:47:26;12.70;61.60
17172;DHT22;8701;50.150;8.756;2023-02-28T12:02:26;14.80;64.80
17172;DHT22;8701;50.150;8.756;2023-02-28T12:06:35;15.30;59.90
17172;DHT22;8701;50.150;8.756;2023-02-28T12:10:49;15.00;61.00
17172;DHT22;8701;50.150;8.756;2023-02-28T12:15:32;15.20;60.10
17172;DHT22;8701;50.150;8.756;2023-02-28T12:19:43;16.40;58.30
17172;DHT22;8701;50.150;8.756;2023-02-28T12:24:03;16.70;54.50
17172;DHT22;8701;50.150;8.756;2023-02-28T12:28:09;16.70;58.80
17172;DHT22;8701;50.150;8.756;2023-02-28T12:32:18;17.90;55.50
17172;DHT22;8701;50.150;8.756;2023-02-28T12:36:34;17.20;56.40
17172;DHT22;8701;50.150;8.756;2023-02-28T12:40:43;17.30;57.50
17172;DHT22;8701;50.150;8.756;2023-02-28T12:44:52;18.10;58.00
17172;DHT22;8701;50.150;8.756;2023-02-28T12:49:06;18.90;56.60
17172;DHT22;8701;50.150;8.756;2023-02-28T12:53:18;19.00;56.80
17172;DHT22;8701;50.150;8.756;2023-02-28T12:57:33;19.40;55.40
17172;DHT22;8701;50.150;8.756;2023-02-28T13:07:33;20.10;54.90
17172;DHT22;8701;50.150;8.756;2023-02-28T13:11:44;20.30;56.00
17172;DHT22;8701;50.150;8.756;2023-02-28T13:15:59;20.50;53.80
17172;DHT22;8701;50.150;8.756;2023-02-28T13:20:02;19.30;54.50
17172;DHT22;8701;50.150;8.756;2023-02-28T13:24:05;19.80;53.60
17172;DHT22;8701;50.150;8.756;2023-02-28T13:28:11;19.50;54.80
17172;DHT22;8701;50.150;8.756;2023-02-28T13:32:27;19.80;52.90
17172;DHT22;8701;50.150;8.756;2023-02-28T13:36:30;20.10;54.10
17172;DHT22;8701;50.150;8.756;2023-02-28T13:40:33;20.10;52.70
17172;DHT22;8701;50.150;8.756;2023-02-28T13:49:25;19.90;52.90
17172;DHT22;8701;50.150;8.756;2023-02-28T13:53:56;19.60;50.60
17172;DHT22;8701;50.150;8.756;2023-02-28T13:58:25;19.60;53.70
17172;DHT22;8701;50.150;8.756;2023-02-28T14:02:48;19.70;52.00
17172;DHT22;8701;50.150;8.756;2023-02-28T14:07:03;19.40;51.90
17172;DHT22;8701;50.150;8.756;2023-02-28T14:11:35;19.00;52.70
17172;DHT22;8701;50.150;8.756;2023-02-28T14:15:46;18.80;52.70
17172;DHT22;8701;50.150;8.756;2023-02-28T14:19:50;18.50;52.50
17172;DHT22;8701;50.150;8.756;2023-02-28T14:24:24;18.20;52.90
17172;DHT22;8701;50.150;8.756;2023-02-28T14:28:44;18.10;53.90
17172;DHT22;8701;50.150;8.756;2023-02-28T14:32:54;18.10;54.70
17172;DHT22;8701;50.150;8.756;2023-02-28T14:37:02;18.10;53.00
17172;DHT22;8701;50.150;8.756;2023-02-28T14:41:16;17.70;54.00
17172;DHT22;8701;50.150;8.756;2023-02-28T14:45:21;17.40;54.10
17172;DHT22;8701;50.150;8.756;2023-02-28T14:49:27;17.00;53.10
17172;DHT22;8701;50.150;8.756;2023-02-28T14:53:34;16.70;54.70
17172;DHT22;8701;50.150;8.756;2023-02-28T14:57:42;16.90;55.10
17172;DHT22;8701;50.150;8.756;2023-02-28T15:01:52;16.80;56.50
17172;DHT22;8701;50.150;8.756;2023-02-28T15:05:56;16.70;55.10
17172;DHT22;8701;50.150;8.756;2023-02-28T15:10:10;16.20;55.00
17172;DHT22;8701;50.150;8.756;2023-02-28T15:14:20;15.80;55.00
17172;DHT22;8701;50.150;8.756;2023-02-28T15:18:28;14.90;55.10
17172;DHT22;8701;50.150;8.756;2023-02-28T15:22:35;14.70;56.30
17172;DHT22;8701;50.150;8.756;2023-02-28T15:26:41;14.30;56.90
17172;DHT22;8701;50.150;8.756;2023-02-28T15:30:55;14.00;57.30
17172;DHT22;8701;50.150;8.756;2023-02-28T15:35:00;13.20;57.70
17172;DHT22;8701;50.150;8.756;2023-02-28T15:39:20;12.80;58.40
17172;DHT22;8701;50.150;8.756;2023-02-28T15:43:25;12.30;58.80
17172;DHT22;8701;50.150;8.756;2023-02-28T15:47:30;11.90;59.30
17172;DHT22;8701;50.150;8.756;2023-02-28T15:51:49;11.90;60.10
17172;DHT22;8701;50.150;8.756;2023-02-28T15:56:01;11.60;60.50
17172;DHT22;8701;50.150;8.756;2023-02-28T16:00:20;11.10;60.90
17172;DHT22;8701;50.150;8.756;2023-02-28T16:04:32;10.60;61.60
17172;DHT22;8701;50.150;8.756;2023-02-28T16:08:41;10.50;62.50
17172;DHT22;8701;50.150;8.756;2023-02-28T16:13:39;10.30;62.70
17172;DHT22;8701;50.150;8.756;2023-02-28T16:23:13;9.70;65.20
17172;DHT22;8701;50.150;8.756;2023-02-28T16:27:21;9.60;66.10
17172;DHT22;8701;50.150;8.756;2023-02-28T16:36:34;9.10;67.10
17172;DHT22;8701;50.150;8.756;2023-02-28T16:40:52;8.90;68.80
17172;DHT22;8701;50.150;8.756;2023-02-28T16:45:08;9.00;67.30
17172;DHT22;8701;50.150;8.756;2023-02-28T16:49:24;8.90;68.20
17172;DHT22;8701;50.150;8.756;2023-02-28T16:53:53;8.90;69.00
17172;DHT22;8701;50.150;8.756;2023-02-28T16:58:13;8.50;68.30
17172;DHT22;8701;50.150;8.756;2023-02-28T17:02:19;8.30;69.10
17172;DHT22;8701;50.150;8.756;2023-02-28T17:06:24;8.20;70.10
17172;DHT22;8701;50.150;8.756;2023-02-28T17:10:29;8.00;69.70
17172;DHT22;8701;50.150;8.756;2023-02-28T17:14:32;8.00;70.20
17172;DHT22;8701;50.150;8.756;2023-02-28T17:18:35;7.90;70.80
17172;DHT22;8701;50.150;8.756;2023-02-28T17:22:37;7.80;71.00
17172;DHT22;8701;50.150;8.756;2023-02-28T17:26:46;7.50;71.70
17172;DHT22;8701;50.150;8.756;2023-02-28T17:30:51;7.30;72.60
17172;DHT22;8701;50.150;8.756;2023-02-28T17:34:53;7.40;72.80
17172;DHT22;8701;50.150;8.756;2023-02-28T17:38:56;7.30;72.90
17172;DHT22;8701;50.150;8.756;2023-02-28T17:42:59;7.20;74.10
17172;DHT22;8701;50.150;8.756;2023-02-28T17:47:04;7.20;74.80
17172;DHT22;8701;50.150;8.756;2023-02-28T17:51:06;7.20;76.60
17172;DHT22;8701;50.150;8.756;2023-02-28T17:55:09;6.90;74.60
17172;DHT22;8701;50.150;8.756;2023-02-28T17:59:13;6.80;75.20
17172;DHT22;8701;50.150;8.756;2023-02-28T18:03:17;6.70;75.00
17172;DHT22;8701;50.150;8.756;2023-02-28T18:07:27;6.70;75.50
17172;DHT22;8701;50.150;8.756;2023-02-28T18:11:29;6.60;75.70
17172;DHT22;8701;50.150;8.756;2023-02-28T18:15:42;6.40;76.00
17172;DHT22;8701;50.150;8.756;2023-02-28T18:19:46;6.30;76.50
17172;DHT22;8701;50.150;8.756;2023-02-28T18:23:51;6.10;77.00
17172;DHT22;8701;50.150;8.756;2023-02-28T18:32:49;6.00;78.70
17172;DHT22;8701;50.150;8.756;2023-02-28T18:36:58;6.00;79.40
17172;DHT22;8701;50.150;8.756;2023-02-28T18:41:03;5.80;79.70
17172;DHT22;8701;50.150;8.756;2023-02-28T18:45:07;5.60;81.00
17172;DHT22;8701;50.150;8.756;2023-02-28T18:49:09;5.40;81.70
17172;DHT22;8701;50.150;8.756;2023-02-28T18:53:13;5.30;82.50
17172;DHT22;8701;50.150;8.756;2023-02-28T18:57:15;5.30;83.50
17172;DHT22;8701;50.150;8.756;2023-02-28T19:01:21;5.20;84.50
17172;DHT22;8701;50.150;8.756;2023-02-28T19:05:23;5.10;85.40
17172;DHT22;8701;50.150;8.756;2023-02-28T19:09:29;5.10;85.90
17172;DHT22;8701;50.150;8.756;2023-02-28T19:13:31;5.10;87.50
17172;DHT22;8701;50.150;8.756;2023-02-28T19:17:36;4.90;88.20
17172;DHT22;8701;50.150;8.756;2023-02-28T19:21:38;4.80;89.50
17172;DHT22;8701;50.150;8.756;2023-02-28T19:25:45;4.80;90.00
17172;DHT22;8701;50.150;8.756;2023-02-28T19:29:50;4.80;90.40
17172;DHT22;8701;50.150;8.756;2023-02-28T19:33:53;4.70;90.70
17172;DHT22;8701;50.150;8.756;2023-02-28T19:37:55;4.60;91.00
17172;DHT22;8701;50.150;8.756;2023-02-28T19:41:59;4.50;91.40
17172;DHT22;8701;50.150;8.756;2023-02-28T19:46:03;4.60;92.00
17172;DHT22;8701;50.150;8.756;2023-02-28T19:50:08;4.60;92.00
17172;DHT22;8701;50.150;8.756;2023-02-28T19:54:14;4.50;92.30
17172;DHT22;8701;50.150;8.756;2023-02-28T19:58:18;4.40;92.70
17172;DHT22;8701;50.150;8.756;2023-02-28T20:02:25;4.30;93.00
17172;DHT22;8701;50.150;8.756;2023-02-28T20:06:30;4.20;93.20
17172;DHT22;8701;50.150;8.756;2023-02-28T20:10:33;4.10;93.80
17172;DHT22;8701;50.150;8.756;2023-02-28T20:14:37;4.10;94.00
17172;DHT22;8701;50.150;8.756;2023-02-28T20:18:40;4.00;94.50
17172;DHT22;8701;50.150;8.756;2023-02-28T20:22:44;3.90;94.90
17172;DHT22;8701;50.150;8.756;2023-02-28T20:26:46;3.90;95.10
17172;DHT22;8701;50.150;8.756;2023-02-28T20:30:51;3.80;95.90
17172;DHT22;8701;50.150;8.756;2023-02-28T20:34:53;3.70;96.30
17172;DHT22;8701;50.150;8.756;2023-02-28T20:39:01;3.60;96.80
17172;DHT22;8701;50.150;8.756;2023-02-28T20:43:03;3.50;97.50
17172;DHT22;8701;50.150;8.756;2023-02-28T20:47:07;3.50;98.00
17172;DHT22;8701;50.150;8.756;2023-02-28T20:51:29;3.50;98.50
17172;DHT22;8701;50.150;8.756;2023-02-28T20:55:31;3.40;99.30
17172;DHT22;8701;50.150;8.756;2023-02-28T20:59:37;3.40;99.80
17172;DHT22;8701;50.150;8.756;2023-02-28T21:04:15;3.40;99.90
17172;DHT22;8701;50.150;8.756;2023-02-28T21:08:20;3.40;99.90
17172;DHT22;8701;50.150;8.756;2023-02-28T21:12:34;3.30;99.90
17172;DHT22;8701;50.150;8.756;2023-02-28T21:16:37;3.30;99.90
17172;DHT22;8701;50.150;8.756;2023-02-28T21:20:40;3.20;99.90
17172;DHT22;8701;50.150;8.756;2023-02-28T21:24:44;3.10;99.90
17172;DHT22;8701;50.150;8.756;2023-02-28T21:28:48;3.10;99.90
17172;DHT22;8701;50.150;8.756;2023-02-28T21:32:51;3.00;99.90
17172;DHT22;8701;50.150;8.756;2023-02-28T21:36:55;2.80;99.90
17172;DHT22;8701;50.150;8.756;2023-02-28T21:41:02;2.90;99.90
17172;DHT22;8701;50.150;8.756;2023-02-28T21:45:06;2.80;99.90
17172;DHT22;8701;50.150;8.756;2023-02-28T21:49:08;2.70;99.90
17172;DHT22;8701;50.150;8.756;2023-02-28T21:53:11;2.70;99.90
17172;DHT22;8701;50.150;8.756;2023-02-28T21:57:14;2.80;99.90
17172;DHT22;8701;50.150;8.756;2023-02-28T22:01:18;2.70;99.90
17172;DHT22;8701;50.150;8.756;2023-02-28T22:05:21;2.60;99.90
17172;DHT22;8701;50.150;8.756;2023-02-28T22:09:25;2.50;99.90
17172;DHT22;8701;50.150;8.756;2023-02-28T22:13:27;2.40;99.90
17172;DHT22;8701;50.150;8.756;2023-02-28T22:17:30;2.30;99.90
17172;DHT22;8701;50.150;8.756;2023-02-28T22:21:32;2.40;99.90
17172;DHT22;8701;50.150;8.756;2023-02-28T22:25:37;2.40;99.90
17172;DHT22;8701;50.150;8.756;2023-02-28T22:29:39;2.40;99.90
17172;DHT22;8701;50.150;8.756;2023-02-28T22:33:44;2.40;99.90
17172;DHT22;8701;50.150;8.756;2023-02-28T22:37:47;2.30;99.90
17172;DHT22;8701;50.150;8.756;2023-02-28T22:41:53;2.20;99.90
17172;DHT22;8701;50.150;8.756;2023-02-28T22:45:56;2.20;99.90
17172;DHT22;8701;50.150;8.756;2023-02-28T22:49:58;2.10;99.90
17172;DHT22;8701;50.150;8.756;2023-02-28T22:54:00;2.10;99.90
17172;DHT22;8701;50.150;8.756;2023-02-28T22:58:03;2.00;99.90
17172;DHT22;8701;50.150;8.756;2023-02-28T23:02:06;2.00;99.90
17172;DHT22;8701;50.150;8.756;2023-02-28T23:06:12;1.90;99.90
17172;DHT22;8701;50.150;8.756;2023-02-28T23:10:16;2.00;99.90
17172;DHT22;8701;50.150;8.756;2023-02-28T23:14:20;1.80;99.90
17172;DHT22;8701;50.150;8.756;2023-02-28T23:18:22;1.80;99.90
17172;DHT22;8701;50.150;8.756;2023-02-28T23:22:25;1.80;99.90
17172;DHT22;8701;50.150;8.756;2023-02-28T23:26:28;1.70;99.90
17172;DHT22;8701;50.150;8.756;2023-02-28T23:30:32;1.80;99.90
17172;DHT22;8701;50.150;8.756;2023-02-28T23:34:34;1.80;99.90
17172;DHT22;8701;50.150;8.756;2023-02-28T23:38:38;1.80;99.90
17172;DHT22;8701;50.150;8.756;2023-02-28T23:42:40;1.80;99.90
17172;DHT22;8701;50.150;8.756;2023-02-28T23:46:45;1.80;99.90
17172;DHT22;8701;50.150;8.756;2023-02-28T23:50:48;1.70;99.90
17172;DHT22;8701;50.150;8.756;2023-02-28T23:54:50;1.70;99.90
17172;DHT22;8701;50.150;8.756;2023-02-28T23:58:53;1.70;99.90
